createdAt,value
2022-10-31T00:01:34.470Z,16.55
2022-10-31T00:04:01.227Z,16.53
2022-10-31T00:06:28.051Z,16.51
2022-10-31T00:08:57.142Z,16.54
2022-10-31T00:11:24.521Z,16.49
2022-10-31T00:13:51.162Z,16.48
2022-10-31T00:16:22.527Z,16.44
2022-10-31T00:18:53.765Z,16.47
2022-10-31T00:21:21.804Z,16.52
2022-10-31T00:23:48.480Z,16.46
2022-10-31T00:26:15.334Z,16.48
2022-10-31T00:28:42.016Z,16.49
2022-10-31T00:31:10.205Z,16.41
2022-10-31T00:33:39.669Z,16.29
2022-10-31T00:36:08.076Z,16.26
2022-10-31T00:38:34.663Z,16.20
2022-10-31T00:41:01.195Z,16.18
2022-10-31T00:43:28.028Z,16.15
2022-10-31T00:45:54.596Z,16.18
2022-10-31T00:48:21.174Z,16.14
2022-10-31T00:50:47.791Z,16.13
2022-10-31T00:53:14.317Z,16.14
2022-10-31T00:55:40.913Z,16.16
2022-10-31T00:58:07.753Z,16.14
2022-10-31T01:00:34.391Z,16.13
2022-10-31T01:03:01.497Z,16.18
2022-10-31T01:05:28.262Z,16.10
2022-10-31T01:07:54.861Z,16.09
2022-10-31T01:10:21.454Z,16.08
2022-10-31T01:12:49.637Z,16.05
2022-10-31T01:15:19.702Z,16.10
2022-10-31T01:17:46.675Z,16.09
2022-10-31T01:20:14.780Z,16.08
2022-10-31T01:22:41.453Z,16.10
2022-10-31T01:25:09.266Z,16.09
2022-10-31T01:27:36.162Z,16.19
2022-10-31T01:30:02.896Z,16.16
2022-10-31T01:32:33.310Z,16.15
2022-10-31T01:34:59.914Z,16.01
2022-10-31T01:37:26.477Z,16.06
2022-10-31T01:39:53.101Z,16.05
2022-10-31T01:42:22.356Z,16.08
2022-10-31T01:45:01.242Z,16.04
2022-10-31T01:47:37.294Z,15.96
2022-10-31T01:50:10.769Z,15.96
2022-10-31T01:52:41.801Z,15.91
2022-10-31T01:55:32.994Z,15.91
2022-10-31T01:58:05.756Z,15.94
2022-10-31T02:00:32.628Z,15.91
2022-10-31T02:03:00.698Z,15.89
2022-10-31T02:05:30.606Z,15.83
2022-10-31T02:08:24.184Z,15.89
2022-10-31T02:10:50.798Z,15.85
2022-10-31T02:13:18.365Z,15.80
2022-10-31T02:15:48.456Z,15.76
2022-10-31T02:18:15.160Z,15.75
2022-10-31T02:21:12.795Z,15.87
2022-10-31T02:23:57.201Z,15.96
2022-10-31T02:26:39.129Z,15.88
2022-10-31T02:29:18.288Z,15.82
2022-10-31T02:31:54.547Z,15.79
2022-10-31T02:34:21.035Z,15.84
2022-10-31T02:36:56.447Z,15.83
2022-10-31T02:39:50.536Z,15.78
2022-10-31T02:42:26.130Z,15.74
2022-10-31T02:45:12.683Z,15.71
2022-10-31T02:47:39.936Z,15.71
2022-10-31T02:50:21.403Z,15.74
2022-10-31T02:52:52.728Z,15.71
2022-10-31T02:55:28.601Z,15.70
2022-10-31T02:58:03.978Z,15.71
2022-10-31T03:00:38.722Z,15.66
2022-10-31T03:03:34.772Z,15.70
2022-10-31T03:06:09.851Z,15.75
2022-10-31T03:09:01.788Z,15.72
2022-10-31T03:11:43.897Z,15.76
2022-10-31T03:14:18.858Z,15.75
2022-10-31T03:16:51.232Z,15.82
2022-10-31T03:19:32.515Z,15.91
2022-10-31T03:22:02.372Z,15.85
2022-10-31T03:24:33.602Z,15.87
2022-10-31T03:27:02.436Z,15.88
2022-10-31T03:29:34.481Z,15.83
2022-10-31T03:32:35.837Z,15.81
2022-10-31T03:35:06.355Z,15.76
2022-10-31T03:37:35.125Z,15.79
2022-10-31T03:40:06.100Z,15.83
2022-10-31T03:42:35.761Z,15.84
2022-10-31T03:45:07.811Z,15.87
2022-10-31T03:47:37.609Z,15.93
2022-10-31T03:50:06.243Z,15.98
2022-10-31T03:52:50.703Z,16.00
2022-10-31T03:55:25.662Z,15.99
2022-10-31T03:57:52.162Z,16.01
2022-10-31T04:00:19.555Z,16.04
2022-10-31T04:02:57.024Z,16.10
2022-10-31T04:05:23.932Z,16.21
2022-10-31T04:07:55.068Z,16.24
2022-10-31T04:10:26.319Z,16.17
2022-10-31T04:13:04.652Z,16.22
2022-10-31T04:15:33.617Z,16.20
2022-10-31T04:18:02.657Z,16.16
2022-10-31T04:20:34.773Z,16.15
2022-10-31T04:23:02.325Z,16.10
2022-10-31T04:25:28.937Z,16.11
2022-10-31T04:27:55.637Z,16.13
2022-10-31T04:30:22.647Z,16.10
2022-10-31T04:32:49.259Z,16.10
2022-10-31T04:35:16.870Z,16.13
2022-10-31T04:37:43.400Z,16.17
2022-10-31T04:40:10.537Z,16.21
2022-10-31T04:42:37.108Z,16.27
2022-10-31T04:45:03.897Z,16.19
2022-10-31T04:47:33.469Z,16.13
2022-10-31T04:50:00.401Z,16.14
2022-10-31T04:52:26.981Z,16.13
2022-10-31T04:54:53.520Z,16.08
2022-10-31T04:57:20.093Z,15.91
2022-10-31T04:59:46.604Z,15.91
2022-10-31T05:02:13.248Z,15.98
2022-10-31T05:04:39.935Z,16.11
2022-10-31T05:07:06.509Z,16.09
2022-10-31T05:09:33.097Z,16.14
2022-10-31T05:11:59.665Z,16.13
2022-10-31T05:14:26.234Z,16.11
2022-10-31T05:16:52.750Z,16.18
2022-10-31T05:19:19.302Z,16.20
2022-10-31T05:21:45.877Z,16.33
2022-10-31T05:24:12.438Z,16.44
2022-10-31T05:26:38.989Z,16.64
2022-10-31T05:29:05.577Z,16.71
2022-10-31T05:31:32.167Z,16.83
2022-10-31T05:33:58.747Z,16.85
2022-10-31T05:36:25.403Z,16.97
2022-10-31T05:38:51.964Z,17.09
2022-10-31T05:41:18.739Z,17.04
2022-10-31T05:43:46.395Z,17.01
2022-10-31T05:46:12.958Z,17.13
2022-10-31T05:48:39.534Z,17.25
2022-10-31T05:51:06.192Z,17.28
2022-10-31T05:53:33.025Z,17.35
2022-10-31T05:55:59.621Z,17.42
2022-10-31T05:58:26.210Z,17.51
2022-10-31T06:00:54.126Z,17.63
2022-10-31T06:03:20.680Z,17.59
2022-10-31T06:05:50.718Z,17.70
2022-10-31T06:08:20.660Z,17.85
2022-10-31T06:10:47.296Z,18.01
2022-10-31T06:13:13.879Z,18.19
2022-10-31T06:15:42.070Z,18.31
2022-10-31T06:18:09.335Z,18.33
2022-10-31T06:20:36.037Z,18.11
2022-10-31T06:23:03.388Z,17.95
2022-10-31T06:25:30.334Z,17.95
2022-10-31T06:27:56.996Z,17.54
2022-10-31T06:30:23.684Z,17.65
2022-10-31T06:32:50.774Z,17.63
2022-10-31T06:35:17.505Z,17.70
2022-10-31T06:37:46.736Z,17.70
2022-10-31T06:40:14.821Z,17.61
2022-10-31T06:42:41.480Z,17.65
2022-10-31T06:45:08.344Z,17.57
2022-10-31T06:47:41.450Z,17.44
2022-10-31T06:50:12.374Z,17.41
2022-10-31T06:52:38.971Z,17.49
2022-10-31T06:55:05.945Z,17.56
2022-10-31T06:57:32.660Z,17.53
2022-10-31T06:59:59.224Z,17.56
2022-10-31T07:02:25.840Z,17.22
2022-10-31T07:04:52.451Z,17.40
2022-10-31T07:07:22.220Z,17.50
2022-10-31T07:09:48.811Z,17.66
2022-10-31T07:12:16.632Z,17.68
2022-10-31T07:14:43.208Z,17.83
2022-10-31T07:17:09.777Z,17.97
2022-10-31T07:19:36.455Z,18.02
2022-10-31T07:22:03.007Z,18.19
2022-10-31T07:24:30.270Z,18.44
2022-10-31T07:26:56.948Z,18.47
2022-10-31T07:29:23.554Z,18.46
2022-10-31T07:31:50.106Z,18.48
2022-10-31T07:34:16.740Z,18.60
2022-10-31T07:36:43.293Z,18.72
2022-10-31T07:39:09.930Z,18.92
2022-10-31T07:41:36.618Z,19.00
2022-10-31T07:44:03.256Z,19.18
2022-10-31T07:46:29.877Z,19.20
2022-10-31T07:48:56.469Z,19.47
2022-10-31T07:51:24.539Z,19.63
2022-10-31T07:53:51.183Z,19.82
2022-10-31T07:56:17.716Z,20.06
2022-10-31T07:58:44.318Z,20.25
2022-10-31T08:03:42.400Z,20.51
2022-10-31T08:06:08.941Z,20.69
2022-10-31T08:08:38.294Z,20.81
2022-10-31T08:11:05.254Z,20.90
2022-10-31T08:13:31.934Z,20.86
2022-10-31T08:16:04.380Z,20.83
2022-10-31T08:18:31.499Z,20.86
2022-10-31T08:20:58.101Z,21.05
2022-10-31T08:23:24.825Z,21.26
2022-10-31T08:25:51.404Z,21.39
2022-10-31T08:28:17.981Z,21.53
2022-10-31T08:30:44.649Z,21.50
2022-10-31T08:33:16.527Z,21.66
2022-10-31T08:35:43.412Z,21.84
2022-10-31T08:38:12.275Z,22.00
2022-10-31T08:40:39.808Z,22.04
2022-10-31T08:43:11.659Z,22.21
2022-10-31T08:45:38.404Z,22.45
2022-10-31T08:48:07.608Z,22.65
2022-10-31T08:50:35.773Z,22.53
2022-10-31T08:53:16.932Z,22.71
2022-10-31T08:55:44.508Z,22.91
2022-10-31T08:58:13.933Z,23.14
2022-10-31T09:00:41.047Z,23.72
2022-10-31T09:03:11.935Z,24.46
2022-10-31T09:05:39.177Z,24.81
2022-10-31T09:08:11.675Z,25.00
2022-10-31T09:10:41.788Z,25.31
2022-10-31T09:13:11.831Z,25.74
2022-10-31T09:15:40.770Z,26.18
2022-10-31T09:18:08.514Z,26.72
2022-10-31T09:20:37.084Z,26.83
2022-10-31T09:23:10.954Z,27.07
2022-10-31T09:25:38.245Z,26.84
2022-10-31T09:28:06.784Z,26.52
2022-10-31T09:30:35.355Z,26.18
2022-10-31T09:33:06.965Z,26.07
2022-10-31T09:35:34.471Z,25.85
2022-10-31T09:38:03.492Z,25.89
2022-10-31T09:41:08.751Z,25.90
2022-10-31T09:44:11.914Z,25.85
2022-10-31T09:47:01.938Z,25.95
2022-10-31T09:49:54.160Z,26.08
2022-10-31T09:52:32.173Z,26.37
2022-10-31T09:55:09.976Z,27.73
2022-10-31T09:57:38.110Z,28.97
2022-10-31T10:00:07.662Z,29.16
2022-10-31T10:02:41.705Z,28.91
2022-10-31T10:05:14.119Z,28.58
2022-10-31T10:07:58.554Z,28.49
2022-10-31T10:11:03.007Z,28.09
2022-10-31T10:13:38.102Z,27.75
2022-10-31T10:16:34.219Z,27.59
2022-10-31T10:19:22.009Z,27.74
2022-10-31T10:22:00.704Z,27.97
2022-10-31T10:24:42.330Z,28.29
2022-10-31T10:27:29.697Z,28.25
2022-10-31T10:30:05.048Z,27.71
2022-10-31T10:32:51.065Z,27.62
2022-10-31T10:35:18.783Z,27.86
2022-10-31T10:37:47.932Z,28.31
2022-10-31T10:40:26.100Z,28.24
2022-10-31T10:43:17.186Z,28.58
2022-10-31T10:46:09.223Z,29.01
2022-10-31T10:49:01.405Z,29.53
2022-10-31T10:52:27.420Z,29.15
2022-10-31T10:54:55.973Z,27.99
2022-10-31T10:57:37.348Z,27.94
2022-10-31T11:00:22.110Z,28.66
2022-10-31T11:02:49.568Z,29.14
2022-10-31T11:05:41.465Z,29.53
2022-10-31T11:08:09.029Z,29.56
2022-10-31T11:10:36.419Z,29.45
2022-10-31T11:13:03.448Z,32.23
2022-10-31T11:15:35.180Z,34.65
2022-10-31T11:18:02.628Z,36.24
2022-10-31T11:20:37.256Z,37.14
2022-10-31T11:23:16.893Z,38.18
2022-10-31T11:26:00.903Z,38.07
2022-10-31T11:28:30.419Z,38.38
2022-10-31T11:31:01.394Z,38.97
2022-10-31T11:33:32.829Z,36.19
2022-10-31T11:36:01.118Z,35.42
2022-10-31T11:38:35.949Z,36.68
2022-10-31T11:41:05.347Z,37.72
2022-10-31T11:43:32.009Z,35.83
2022-10-31T11:45:58.719Z,36.74
2022-10-31T11:48:26.489Z,36.11
2022-10-31T11:50:57.232Z,36.60
2022-10-31T11:53:35.278Z,37.35
2022-10-31T11:56:16.831Z,37.60
2022-10-31T11:58:43.611Z,36.92
2022-10-31T12:01:26.435Z,36.11
2022-10-31T12:04:08.155Z,34.62
2022-10-31T12:06:40.245Z,32.80
2022-10-31T12:09:39.397Z,31.08
2022-10-31T12:12:27.376Z,29.89
2022-10-31T12:15:15.268Z,29.63
2022-10-31T12:17:41.791Z,29.24
2022-10-31T12:20:35.908Z,29.06
2022-10-31T12:23:05.694Z,29.37
2022-10-31T12:25:51.138Z,29.66
2022-10-31T12:28:39.995Z,29.66
2022-10-31T12:31:46.948Z,30.83
2022-10-31T12:34:38.325Z,31.45
2022-10-31T12:37:13.988Z,30.89
2022-10-31T12:39:45.870Z,29.98
2022-10-31T12:42:18.098Z,29.42
2022-10-31T12:44:55.939Z,28.81
2022-10-31T12:47:43.907Z,28.39
2022-10-31T12:50:25.448Z,28.03
2022-10-31T12:53:11.445Z,27.73
2022-10-31T12:55:56.967Z,27.79
2022-10-31T12:58:30.194Z,28.04
2022-10-31T13:01:12.723Z,28.08
2022-10-31T13:03:56.332Z,28.05
2022-10-31T13:06:34.444Z,27.77
2022-10-31T13:09:06.037Z,27.62
2022-10-31T13:11:38.829Z,27.88
2022-10-31T13:14:27.774Z,29.08
2022-10-31T13:16:56.750Z,30.09
2022-10-31T13:19:28.879Z,30.60
2022-10-31T13:22:04.348Z,31.88
2022-10-31T13:24:46.752Z,32.61
2022-10-31T13:27:24.169Z,31.85
2022-10-31T13:30:17.213Z,30.28
2022-10-31T13:32:47.898Z,28.81
2022-10-31T13:35:38.277Z,27.85
2022-10-31T13:38:22.490Z,27.38
2022-10-31T13:41:03.053Z,26.86
2022-10-31T13:43:32.440Z,26.50
2022-10-31T13:45:59.077Z,26.28
2022-10-31T13:48:28.701Z,26.09
2022-10-31T13:51:04.397Z,25.80
2022-10-31T13:54:08.354Z,25.52
2022-10-31T13:56:36.527Z,25.20
2022-10-31T13:59:15.927Z,24.98
2022-10-31T14:01:51.921Z,24.70
2022-10-31T14:04:26.056Z,24.61
2022-10-31T14:07:09.347Z,24.50
2022-10-31T14:09:35.883Z,24.39
2022-10-31T14:12:06.697Z,24.27
2022-10-31T14:14:43.812Z,24.31
2022-10-31T14:17:20.377Z,24.19
2022-10-31T14:20:11.805Z,24.00
2022-10-31T14:22:42.858Z,23.89
2022-10-31T14:25:45.035Z,23.77
2022-10-31T14:28:35.077Z,23.69
2022-10-31T14:31:02.237Z,23.56
2022-10-31T14:33:31.088Z,23.36
2022-10-31T14:36:33.158Z,23.32
2022-10-31T14:39:44.541Z,23.19
2022-10-31T14:42:43.064Z,23.06
2022-10-31T14:45:19.369Z,22.98
2022-10-31T14:48:11.073Z,22.89
2022-10-31T14:50:50.213Z,22.79
2022-10-31T14:53:46.358Z,22.70
2022-10-31T14:56:13.173Z,22.63
2022-10-31T14:58:44.155Z,22.59
2022-10-31T15:01:27.722Z,22.48
2022-10-31T15:06:50.063Z,22.28
2022-10-31T15:09:28.396Z,22.19
2022-10-31T15:11:55.024Z,22.06
2022-10-31T15:14:30.050Z,21.93
2022-10-31T15:17:03.217Z,21.84
2022-10-31T15:19:33.679Z,21.81
2022-10-31T15:22:01.509Z,21.68
2022-10-31T15:24:36.297Z,21.60
2022-10-31T15:27:05.341Z,21.45
2022-10-31T15:29:32.696Z,21.45
2022-10-31T15:32:21.100Z,21.30
2022-10-31T15:34:47.866Z,21.14
2022-10-31T15:37:17.130Z,21.09
2022-10-31T15:39:47.982Z,21.09
2022-10-31T15:42:20.389Z,21.07
2022-10-31T15:44:52.150Z,20.90
2022-10-31T15:47:22.526Z,20.87
2022-10-31T15:49:56.524Z,20.79
2022-10-31T15:52:29.558Z,20.63
2022-10-31T15:55:00.198Z,20.55
2022-10-31T15:57:29.791Z,20.43
2022-10-31T15:59:56.453Z,20.38
2022-10-31T16:02:26.681Z,20.33
2022-10-31T16:05:03.931Z,20.23
2022-10-31T16:07:31.363Z,20.25
2022-10-31T16:09:58.009Z,20.21
2022-10-31T16:12:29.960Z,20.17
2022-10-31T16:14:56.769Z,20.10
2022-10-31T16:17:27.120Z,20.06
2022-10-31T16:20:07.296Z,19.96
2022-10-31T16:22:38.921Z,19.86
2022-10-31T16:25:07.143Z,19.80
2022-10-31T16:27:35.579Z,19.78
2022-10-31T16:30:07.617Z,19.69
2022-10-31T16:32:37.080Z,19.59
2022-10-31T16:35:10.318Z,19.53
2022-10-31T16:37:43.712Z,19.55
2022-10-31T16:40:15.483Z,19.52
2022-10-31T16:42:43.337Z,19.48
2022-10-31T16:45:25.602Z,19.42
2022-10-31T16:47:52.633Z,19.36
2022-10-31T16:50:26.806Z,19.28
2022-10-31T16:53:08.745Z,19.38
2022-10-31T16:55:45.895Z,19.30
2022-10-31T16:58:26.202Z,19.25
2022-10-31T17:00:53.990Z,19.26
2022-10-31T17:03:20.945Z,19.15
2022-10-31T17:05:47.575Z,19.20
2022-10-31T17:08:14.272Z,19.22
2022-10-31T17:10:42.696Z,19.21
2022-10-31T17:13:18.030Z,19.19
2022-10-31T17:15:50.772Z,19.15
2022-10-31T17:18:20.545Z,19.15
2022-10-31T17:20:55.768Z,19.10
2022-10-31T17:23:22.415Z,19.09
2022-10-31T17:25:48.979Z,19.07
2022-10-31T17:28:15.728Z,18.93
2022-10-31T17:30:43.455Z,18.98
2022-10-31T17:33:13.286Z,18.99
2022-10-31T17:35:40.197Z,18.95
2022-10-31T17:38:06.799Z,18.93
2022-10-31T17:40:33.575Z,18.88
2022-10-31T17:43:00.627Z,18.74
2022-10-31T17:45:27.478Z,18.62
2022-10-31T17:47:54.658Z,18.59
2022-10-31T17:50:23.940Z,18.49
2022-10-31T17:52:51.087Z,18.52
2022-10-31T17:55:18.479Z,18.52
2022-10-31T17:57:45.433Z,18.61
2022-10-31T18:00:18.336Z,18.59
2022-10-31T18:02:44.967Z,18.60
2022-10-31T18:05:11.698Z,18.60
2022-10-31T18:07:38.370Z,18.59
2022-10-31T18:10:06.114Z,18.61
2022-10-31T18:12:32.692Z,18.65
2022-10-31T18:14:59.345Z,18.69
2022-10-31T18:17:26.617Z,18.72
2022-10-31T18:19:53.307Z,18.58
2022-10-31T18:22:20.095Z,18.69
2022-10-31T18:24:46.682Z,18.67
2022-10-31T18:27:13.296Z,18.68
2022-10-31T18:29:39.827Z,18.69
2022-10-31T18:32:09.467Z,18.73
2022-10-31T18:34:36.823Z,18.70
2022-10-31T18:37:03.862Z,18.74
2022-10-31T18:39:30.827Z,18.75
2022-10-31T18:41:57.502Z,18.72
2022-10-31T18:44:24.210Z,18.72
2022-10-31T18:46:50.792Z,18.75
2022-10-31T18:49:22.633Z,18.74
2022-10-31T18:51:50.447Z,18.74
2022-10-31T18:54:17.143Z,18.66
2022-10-31T18:56:44.253Z,18.61
2022-10-31T18:59:11.925Z,18.57
2022-10-31T19:01:38.716Z,18.58
2022-10-31T19:04:05.647Z,18.59
2022-10-31T19:06:32.349Z,18.43
2022-10-31T19:09:01.016Z,18.36
2022-10-31T19:11:27.768Z,18.36
2022-10-31T19:13:54.432Z,18.27
2022-10-31T19:16:21.015Z,18.22
2022-10-31T19:18:47.647Z,18.12
2022-10-31T19:21:16.734Z,18.12
2022-10-31T19:23:44.873Z,18.04
2022-10-31T19:26:12.517Z,17.95
2022-10-31T19:28:40.677Z,17.82
2022-10-31T19:31:08.811Z,17.62
2022-10-31T19:33:36.394Z,17.43
2022-10-31T19:36:14.151Z,17.30
2022-10-31T19:38:45.301Z,17.24
2022-10-31T19:41:14.789Z,17.16
2022-10-31T19:43:42.004Z,17.04
2022-10-31T19:46:17.539Z,17.00
2022-10-31T19:48:55.040Z,17.09
2022-10-31T19:51:21.956Z,16.98
2022-10-31T19:53:52.395Z,16.84
2022-10-31T19:56:21.863Z,16.80
2022-10-31T19:58:48.912Z,16.73
2022-10-31T20:01:18.067Z,16.57
2022-10-31T20:03:45.717Z,16.59
2022-10-31T20:06:21.280Z,16.47
2022-10-31T20:08:47.841Z,16.48
2022-10-31T20:11:14.473Z,16.43
2022-10-31T20:13:41.140Z,16.39
2022-10-31T20:16:11.857Z,16.30
2022-10-31T20:18:38.917Z,16.17
2022-10-31T20:21:17.126Z,16.20
2022-10-31T20:23:44.523Z,16.13
2022-10-31T20:26:14.195Z,16.02
2022-10-31T20:28:43.215Z,15.99
2022-10-31T20:31:22.454Z,15.90
2022-10-31T20:33:49.764Z,15.88
2022-10-31T20:36:21.191Z,15.91
2022-10-31T20:38:47.909Z,15.93
2022-10-31T20:41:15.268Z,15.76
2022-10-31T20:43:42.180Z,15.70
2022-10-31T20:46:12.564Z,15.67
2022-10-31T20:48:39.370Z,15.56
2022-10-31T20:51:08.301Z,15.53
2022-10-31T20:53:34.884Z,15.54
2022-10-31T20:56:08.627Z,15.60
2022-10-31T20:58:36.945Z,15.58
2022-10-31T21:01:05.485Z,15.59
2022-10-31T21:03:32.204Z,15.60
2022-10-31T21:06:01.135Z,15.62
2022-10-31T21:08:30.258Z,15.64
2022-10-31T21:10:57.305Z,15.60
2022-10-31T21:13:24.567Z,15.58
2022-10-31T21:16:09.120Z,15.53
2022-10-31T21:18:37.427Z,15.55
2022-10-31T21:21:32.553Z,15.57
2022-10-31T21:24:08.547Z,15.49
2022-10-31T21:26:37.870Z,15.48
2022-10-31T21:29:05.822Z,15.41
2022-10-31T21:31:33.225Z,15.41
2022-10-31T21:33:59.782Z,15.43
2022-10-31T21:36:26.712Z,15.40
2022-10-31T21:38:54.927Z,15.42
2022-10-31T21:41:22.483Z,15.43
2022-10-31T21:43:51.181Z,15.46
2022-10-31T21:46:23.556Z,15.51
2022-10-31T21:48:50.445Z,15.48
2022-10-31T21:51:26.138Z,15.52
2022-10-31T21:54:11.162Z,15.57
2022-10-31T21:56:38.307Z,15.46
2022-10-31T21:59:05.921Z,15.45
2022-10-31T22:01:33.530Z,15.47
2022-10-31T22:04:00.724Z,15.45
2022-10-31T22:06:30.010Z,15.41
2022-10-31T22:08:58.983Z,15.41
2022-10-31T22:11:25.862Z,15.34
2022-10-31T22:13:52.483Z,15.37
2022-10-31T22:16:20.926Z,15.31
2022-10-31T22:18:51.371Z,15.39
2022-10-31T22:21:20.165Z,15.36
2022-10-31T22:24:06.689Z,15.33
2022-10-31T22:26:34.826Z,15.27
2022-10-31T22:29:04.960Z,15.25
2022-10-31T22:31:32.937Z,15.22
2022-10-31T22:33:59.592Z,15.27
2022-10-31T22:36:29.205Z,15.22
2022-10-31T22:38:56.472Z,15.17
2022-10-31T22:41:28.640Z,15.13
2022-10-31T22:43:56.209Z,15.07
2022-10-31T22:46:26.144Z,15.08
2022-10-31T22:48:55.000Z,15.08
2022-10-31T22:51:24.430Z,15.03
2022-10-31T22:53:51.771Z,14.97
2022-10-31T22:56:20.908Z,15.05
2022-10-31T22:58:48.048Z,14.98
2022-10-31T23:01:17.103Z,14.94
2022-10-31T23:03:44.498Z,14.95
2022-10-31T23:06:16.865Z,14.95
2022-10-31T23:08:44.068Z,15.03
2022-10-31T23:11:32.405Z,14.98
2022-10-31T23:14:09.840Z,15.00
2022-10-31T23:16:40.680Z,15.00
2022-10-31T23:19:08.408Z,14.95
2022-10-31T23:21:56.493Z,14.97
2022-10-31T23:24:34.765Z,14.90
2022-10-31T23:27:09.454Z,14.82
2022-10-31T23:29:50.667Z,14.82
2022-10-31T23:32:23.408Z,14.73
2022-10-31T23:34:51.912Z,14.71
2022-10-31T23:37:19.849Z,14.74
2022-10-31T23:39:46.657Z,14.65
2022-10-31T23:42:16.796Z,14.62
2022-10-31T23:44:43.537Z,14.64
2022-10-31T23:47:10.183Z,14.63
2022-10-31T23:49:36.897Z,14.65
2022-10-31T23:52:04.487Z,14.64
2022-10-31T23:54:31.813Z,14.64
2022-10-31T23:56:58.929Z,14.59
2022-10-31T23:59:26.593Z,14.58
